Terminal Aerodrome Forecast
Issued by NWS

Home | Current Version | Previous Version | Text Only | Print | Product List | Glossary On
Versions: 1 2 3 4 5 6 7 8 9 10 11 12 13 14
000
FTUS43 KFGF 182300
TAFDVL
TAF
KDVL 182320Z 1900/1924 17011KT P6SM BKN200
     FM190400 20010KT P6SM BKN050
     FM190700 32012G20KT P6SM -SHRA OVC035
     FM191000 33020G29KT P6SM -SHRA OVC050
     FM191900 32024G32KT P6SM OVC050
      AMD LTD TO CLD VIS AND WIND=

USA.gov is the U.S. government's official web portal to all federal, state and local government web resources and services.